Piney, Arkansas
Current Conditions -  °F | °C
As of 4:53 PM on Wednesday 17 Dec 2014 (Local Time) from KHOT Reporting Station
Overcast Overcast  
Wind Chill: 35°   Ceiling: 7000
Heat Index: 39°   Visibility: 10mi
Dew Point: 29°   Wind: 6mph
Humidity: 67%   Direction: 100°E
Pressure: 30.21"   Gusts: NA
Location:  34.5331°N, 93.0035°W
Report Text: KHOT 172253Z AUTO 10005KT 10SM OVC070 04/M02 A3021 RMK AO2 SLP232 T00391017
Loading
Personal Weather Stations






























Interactive Weather Map New forecast layout! Learn more

10-Day Weather Forecast

Advertisements
Track Severe Weather on mobile